Airfield :
LOGIN :

Register | Disclaimer

   EN    FR    IT 

 










Legend :    VFR   Marginal VFR   IFR   Intensive IFR   Very Intensive IFR
Visi :
Ceiling :
>= 8 km
>= 3000ft
5 to 8 km
1000 to 3000 ft
1500m to 5 km
500 to 1000 ft
800 to 1500m
200 to 500 ft
< 800m
< 200 ft
Symbols :   Thunderstorms  Fog  Heavy snow  Heavy precipitations  Wind > 20 kt
SIGMETs :     Misc.  Thunderstorms  Icing  Turbulence  Mountain Waves  Volcanic Ashes






- Airport Elevation : 119 ft
- IATA code : WAT


EIWF - Waterford

CURRENT METAR :
  • 191500Z 23004KT CAVOK 10/06 Q1007

EXPIRED METARs :
  • 191430Z 23005KT CAVOK 10/06 Q1007
  • 191400Z 24005KT 210V280 CAVOK 10/06 Q1007
  • 191330Z 25006KT 210V280 9999 FEW016 10/06 Q1008
  • 191300Z 25006KT 200V300 9999 FEW016 10/06 Q1008 R21/0/////
  • 191230Z 27007KT 230V300 9999 FEW015 SCT026 09/06 Q1008 R21/1/////

TAF TAF EIWF
Valid from the 19 at 15:00 until the 20 at 00:00 UTC


191400Z 1915/1924 22005KT 9999 SCT018
TEMPO 1921/1924 3000 BR BKN010
ATIS : +353 51 877 000



MET'MAP, your aeronautical weather chart ! - Copyright ORBIFLY December 2007 - Disclaimer

ORBIFLY MET'MAP TEAM :

Programming & Development : Alexandra Zaïnal
Concept & Development : Baudouin d'Aumeries
Co-Development & Prog : Marc-Olivier Méhu
Technical & hardware support : Manuel Goepfert

Contact : metmap@orbifly.com




SOURCES & CREDITS :

   NOAA